Flight Track Log - Related Links

Times and Time Zones

All times are in EDT time to prevent confusion due to time zone crossing. See the EJA951 flight status page for this flight to view local times or setup timezone preferences in your user account.

Time Position Orientation Groundspeed Altitude Reporting Facility
EDT Latitude Longitude Course Direction KTS MPH feet Rate Location/Type
Wed 04:33:54 PM 43.4600 -84.0469 160° South 196 226 5,400  Level Cleveland Center
Wed 04:34:56 PM 43.3817 -84.0119 162° South 280 322 9,400 3,290 Climbing Cleveland Center
Wed 04:35:58 PM 43.2867 -83.9667 161° South 354 407 12,200 3,145 Climbing Cleveland Center
Wed 04:37:00 PM 43.1869 -83.9250 163° South 375 432 15,900 2,419 Climbing Cleveland Center
Wed 04:38:02 PM 43.0850 -83.8814 163° South 383 441 17,200 1,065 Climbing Cleveland Center
Wed 04:39:00 PM 42.7868 -83.8608 160° South  Level Estimated
Wed 04:39:04 PM 42.9756 -83.8339 162° South 409 471 18,100  Level Cleveland Center
Wed 04:40:06 PM 42.8631 -83.7858 163° South 424 488 19,100 1,355 Climbing Cleveland Center
Wed 04:41:08 PM 42.7481 -83.7364 162° South 433 498 20,900 1,728 Climbing Cleveland Center
Wed 04:42:11 PM 42.6128 -83.6797 163° South 428 493 22,700 1,776 Climbing Cleveland Center
Wed 04:43:13 PM 42.4983 -83.6308 163° South 433 498 24,600 3,242 Climbing Cleveland Center
Wed 04:44:15 PM 42.3947 -83.5875 163° South 393 452 29,400 3,435 Climbing Cleveland Center
Wed 04:45:17 PM 42.2897 -83.5447 163° South 362 417 31,700 1,355 Climbing Cleveland Center
Wed 04:46:19 PM 42.1808 -83.5042 165° South 390 449 32,200 532 Climbing Cleveland Center
Wed 04:47:21 PM 42.0558 -83.4592 165° South 453 521 32,800 919 Climbing Cleveland Center
Wed 04:48:23 PM 41.9278 -83.3989 161° South 479 551 34,100 1,065 Climbing Cleveland Center
Wed 04:49:25 PM 41.7967 -83.3381 161° South 497 572 35,000 1,161 Climbing Cleveland Center
Wed 04:50:27 PM 41.6608 -83.2747 161° South 514 592 36,500 1,742 Climbing Cleveland Center
Wed 04:51:29 PM 41.5017 -83.1989 160° South 508 585 38,600 1,790 Climbing Cleveland Center
Wed 04:52:31 PM 41.3683 -83.1381 161° South 502 578 40,200 1,161 Climbing Cleveland Center
Wed 04:53:33 PM 41.2367 -83.0772 161° South 499 574 41,000 387 Climbing Cleveland Center
Wed 04:54:35 PM 41.1053 -83.0175 161° South 497 572 41,000  Level Cleveland Center
Wed 04:55:38 PM 40.9739 -82.9578 161° South 497 572 41,000  Level Cleveland Center
Wed 04:56:30 PM 40.8664 -82.9097 161° South 492 566 41,000  Level Indianapolis Center
Wed 04:57:32 PM 40.7131 -82.8392 161° South 495 570 41,000  Level Indianapolis Center
Wed 04:58:34 PM 40.5817 -82.7806 161° South 497 572 41,000  Level Indianapolis Center
Wed 04:59:36 PM 40.4511 -82.7214 161° South 495 570 41,000  Level Indianapolis Center
Wed 05:00:38 PM 40.3186 -82.6625 161° South 499 574 41,000  Level Indianapolis Center
Wed 05:01:41 PM 40.1772 -82.6017 162° South 498 573 41,000  Level Indianapolis Center
Wed 05:02:43 PM 40.0408 -82.5733 171° South 496 571 41,000  Level Indianapolis Center
Wed 05:03:45 PM 39.9028 -82.5533 174° South 497 572 41,000  Level Indianapolis Center
Wed 05:04:47 PM 39.7647 -82.5356 174° South 496 571 41,000  Level Indianapolis Center
Wed 05:05:49 PM 39.6267 -82.5169 174° South 497 572 41,000  Level Indianapolis Center
Wed 05:06:51 PM 39.4608 -82.4939 174° South 497 572 41,000  Level Indianapolis Center
Wed 05:07:53 PM 39.3350 -82.4769 174° South 497 572 41,000  Level Indianapolis Center
Wed 05:08:55 PM 39.1978 -82.4581 174° South 497 572 41,000  Level Indianapolis Center
Wed 05:09:57 PM 39.0336 -82.4350 174° South 495 570 41,000  Level Indianapolis Center
Wed 05:10:59 PM 38.8947 -82.4172 174° South 500 575 41,000  Level Indianapolis Center
Wed 05:12:01 PM 38.7564 -82.3994 174° South 502 578 41,000  Level Indianapolis Center
Wed 05:13:03 PM 38.6203 -82.3978 179° South 493 567 41,000  Level Indianapolis Center
Wed 05:14:05 PM 38.4828 -82.4061 183° South 495 570 41,000  Level Indianapolis Center
Wed 05:15:07 PM 38.3453 -82.4142 183° South 496 571 41,000  Level Indianapolis Center
Wed 05:16:09 PM 38.1817 -82.4250 183° South 493 567 41,000 336 Level Indianapolis Center
Wed 05:17:12 PM 38.0542 -82.4339 183° South 490 564 41,700 864 Climbing Indianapolis Center
Wed 05:18:14 PM 37.8922 -82.4119 174° South 497 572 42,800 629 Climbing Indianapolis Center
Wed 05:19:16 PM 37.7517 -82.3858 172° South 508 585 43,000 97 Climbing Indianapolis Center
Wed 05:20:18 PM 37.6108 -82.3622 172° South 506 582 43,000  Level Indianapolis Center
Wed 05:21:20 PM 37.4714 -82.3381 172° South 500 575 43,000  Level Indianapolis Center
Wed 05:22:22 PM 37.3303 -82.3128 172° South 506 582 43,000  Level Indianapolis Center
Wed 05:23:24 PM 37.1939 -82.2603 163° South 518 596 43,000  Level Indianapolis Center
Wed 05:24:27 PM 37.0386 -82.1783 157° South 513 590 43,000  Level Indianapolis Center
Wed 05:25:28 PM 36.9056 -82.1083 157° South 514 592 43,000  Level Indianapolis Center
Wed 05:26:21 PM 36.7886 -82.0456 157° South 515 593 43,000  Level Atlanta Center
Wed 05:27:21 PM 36.6561 -81.9764 157° South 515 593 43,000  Level Atlanta Center
Wed 05:28:21 PM 36.5239 -81.9153 160° South 515 593 43,000  Level Atlanta Center
Wed 05:29:21 PM 36.3822 -81.9267 184° South 496 571 43,000  Level Atlanta Center
Wed 05:30:21 PM 36.2697 -81.9400 185° South 501 577 43,000  Level Atlanta Center
Wed 05:31:21 PM 36.1094 -81.9622 186° South 501 577 43,000  Level Atlanta Center
Wed 05:32:21 PM 35.9681 -81.9836 187° South 506 582 43,000  Level Atlanta Center
Wed 05:33:21 PM 35.8264 -82.0000 185° South 506 582 43,000  Level Atlanta Center
Wed 05:34:21 PM 35.6911 -82.0189 186° South 505 581 43,000  Level Atlanta Center
Wed 05:35:21 PM 35.5539 -82.0375 186° South 500 575 43,000  Level Atlanta Center
Wed 05:36:21 PM 35.4164 -82.0536 185° South 500 575 43,000  Level Atlanta Center
Wed 05:37:21 PM 35.2936 -82.0692 186° South 500 575 43,000  Level Atlanta Center
Wed 05:38:21 PM 35.1561 -82.0853 185° South 500 575 43,000  Level Atlanta Center
Wed 05:39:21 PM 35.0208 -82.1036 186° South 500 575 43,000  Level Atlanta Center
Wed 05:40:21 PM 34.8875 -82.1169 185° South 491 565 43,000  Level Atlanta Center
Wed 05:41:21 PM 34.7500 -82.1328 185° South 491 565 43,000  Level Atlanta Center
Wed 05:42:21 PM 34.6167 -82.1458 185° South 491 565 43,000  Level Atlanta Center
Wed 05:43:21 PM 34.4811 -82.1639 186° South 496 571 43,000  Level Atlanta Center
Wed 05:44:21 PM 34.3458 -82.1794 185° South 496 571 43,000  Level Atlanta Center
Wed 05:45:21 PM 34.2061 -82.1978 186° South 501 577 43,000  Level Atlanta Center
Wed 05:46:21 PM 34.0728 -82.2106 185° South 495 570 43,000  Level Atlanta Center
Wed 05:47:21 PM 33.9375 -82.2261 185° South 495 570 43,000  Level Atlanta Center
Wed 05:48:21 PM 33.7997 -82.2389 184° South 495 570 43,000  Level Atlanta Center
Wed 05:49:21 PM 33.6581 -82.2544 185° South 502 578 43,000  Level Atlanta Center
Wed 05:50:21 PM 33.5103 -82.2772 187° South 502 578 43,000  Level Atlanta Center
Wed 05:51:21 PM 33.3728 -82.2975 187° South 502 578 43,000  Level Atlanta Center
Wed 05:52:21 PM 33.2372 -82.3128 185° South 497 572 43,000  Level Atlanta Center
Wed 05:53:21 PM 33.1019 -82.3253 184° South 497 572 43,000  Level Atlanta Center
Wed 05:54:21 PM 32.9664 -82.3428 186° South 497 572 43,000  Level Atlanta Center
Wed 05:55:21 PM 32.8436 -82.3600 187° South 503 579 43,000  Level Atlanta Center
Wed 05:57:17 PM 32.5706 -82.3872 185° South 482 555 43,000  Level Jacksonville Center
Wed 05:58:17 PM 32.4308 -82.4028 185° South 481 554 43,000  Level Jacksonville Center
Wed 05:59:17 PM 32.3139 -82.4206 187° South 488 562 43,000  Level Jacksonville Center
Wed 06:00:17 PM 32.1742 -82.4361 185° South 488 562 43,000  Level Jacksonville Center
Wed 06:01:17 PM 32.0425 -82.4514 186° South 488 562 43,000  Level Jacksonville Center
Wed 06:02:17 PM 31.9047 -82.4644 185° South 494 568 43,000  Level Jacksonville Center
Wed 06:03:17 PM 31.7692 -82.4819 186° South 499 574 43,000  Level Jacksonville Center
Wed 06:04:17 PM 31.6314 -82.4950 185° South 499 574 43,000  Level Jacksonville Center
Wed 06:05:17 PM 31.4958 -82.5075 184° South 499 574 43,000  Level Jacksonville Center
Wed 06:06:17 PM 31.3433 -82.5203 184° South 504 580 43,000  Level Jacksonville Center
Wed 06:07:17 PM 31.2078 -82.5258 182° South 504 580 43,000  Level Jacksonville Center
Wed 06:08:17 PM 31.0700 -82.5311 182° South 498 573 43,000  Level Jacksonville Center
Wed 06:09:17 PM 30.9342 -82.5389 183° South 498 573 43,000  Level Jacksonville Center
Wed 06:10:17 PM 30.8006 -82.5419 181° South 498 573 43,000  Level Jacksonville Center
Wed 06:11:17 PM 30.6606 -82.5497 183° South 498 573 43,000  Level Jacksonville Center
Wed 06:12:17 PM 30.5250 -82.5550 182° South 498 573 43,000  Level Jacksonville Center
Wed 06:13:17 PM 30.4017 -82.5481 177° South 498 573 43,000 -450 Level Jacksonville Center
Wed 06:14:17 PM 30.2639 -82.5367 176° South 498 573 42,100 -1,000 Descending Jacksonville Center
Wed 06:15:17 PM 30.1281 -82.5275 177° South 498 573 41,000 -550 Descending Jacksonville Center
Wed 06:16:17 PM 29.9967 -82.5114 174° South 498 573 41,000  Level Jacksonville Center
Wed 06:17:17 PM 29.8672 -82.5022 176° South 493 567 41,000  Level Jacksonville Center
Wed 06:18:17 PM 29.7356 -82.4908 176° South 482 555 41,000  Level Jacksonville Center
Wed 06:19:17 PM 29.5997 -82.4817 177° South 482 555 41,000  Level Jacksonville Center
Wed 06:20:17 PM 29.4642 -82.4728 177° South 482 555 41,000  Level Jacksonville Center
Wed 06:21:17 PM 29.3283 -82.4639 177° South 482 555 41,000  Level Jacksonville Center
Wed 06:22:17 PM 29.1969 -82.4525 176° South 477 549 41,000  Level Jacksonville Center
Wed 06:23:17 PM 29.0653 -82.4411 176° South 477 549 41,000  Level Jacksonville Center
Wed 06:24:17 PM 28.9358 -82.4253 174° South 477 549 41,000  Level Jacksonville Center
Wed 06:25:17 PM 28.8064 -82.4092 174° South 477 549 41,000  Level Jacksonville Center
Wed 06:26:17 PM 28.6769 -82.3933 174° South 477 549 41,000  Level Jacksonville Center
Wed 06:27:17 PM 28.5475 -82.3750 173° South 477 549 41,000  Level Jacksonville Center
Wed 06:28:17 PM 28.4200 -82.3592 174° South 477 549 41,000  Level Jacksonville Center
Wed 06:30:15 PM 28.1508 -82.3239 173° South 470 541 41,000  Level Miami Center
Wed 06:31:15 PM 28.0242 -82.3058 173° South 460 529 41,000  Level Miami Center
Wed 06:32:15 PM 27.9089 -82.2653 163° South 466 536 41,000  Level Miami Center
Wed 06:33:15 PM 27.7811 -82.2239 164° South 471 542 41,000 -1,200 Level Miami Center
Wed 06:34:15 PM 27.6553 -82.1806 163° South 471 542 38,600 -2,650 Descending Miami Center
Wed 06:35:15 PM 27.5175 -82.1319 163° South 471 542 35,700 -1,800 Descending Miami Center
Wed 06:36:15 PM 27.3958 -82.0889 163° South 471 542 35,000 -5,850 Descending Miami Center
Wed 06:37:15 PM 27.2719 -82.0483 164° South 464 534 24,000 -4,500 Descending Miami Center
Wed 06:38:15 PM 27.1567 -82.0081 163° South 478 550 26,000  Climbing Miami Center
Wed 06:39:15 PM 27.0183 -81.9647 164° South 492 566 24,000 -1,750 Descending Miami Center
Wed 06:40:15 PM 26.8978 -81.8872 150° Southeast 480 552 22,500 -1,500 Descending Miami Center
Wed 06:41:15 PM 26.8028 -81.7994 140° Southeast 454 522 21,000 -1,600 Descending Miami Center
Wed 06:42:15 PM 26.7225 -81.7056 134° Southeast 435 501 19,300 -1,000 Descending Miami Center
Wed 06:43:15 PM 26.7008 -81.5978 103° East 381 438 19,000 -150 Descending Miami Center
Wed 06:44:15 PM 26.7256 -81.4825 76° East 340 391 19,000  Level Miami Center
Wed 06:45:15 PM 26.7475 -81.3833 76° East 334 384 19,000 -750 Level Miami Center
Wed 06:46:15 PM 26.7689 -81.2933 75° East 334 384 17,500 -1,550 Descending Miami Center
Wed 06:47:15 PM 26.7928 -81.2014 74° East 310 357 15,900 -1,550 Descending Miami Center
Wed 06:48:15 PM 26.8142 -81.1136 75° East 296 341 14,400 -1,600 Descending Miami Center
Wed 06:49:15 PM 26.8211 -81.0161 85° East 291 335 12,700 -1,650 Descending Miami Center
Wed 06:50:15 PM 26.8322 -80.9211 83° East 298 343 11,100 -1,350 Descending Miami Center
Wed 06:51:15 PM 26.8219 -80.8300 97° East 293 337 10,000 -550 Descending Miami Center
Wed 06:52:15 PM 26.8033 -80.7525 105° East 282 325 10,000 -50 Level Miami Center
Wed 06:53:15 PM 26.7828 -80.6567 103° East 282 325 9,900 -850 Descending Miami Center
Wed 06:54:15 PM 26.7661 -80.5817 104° East 282 325 8,300 -1,450 Descending Miami Center
Wed 06:55:15 PM 26.7492 -80.5042 104° East 246 283 7,000 -1,200 Descending Miami Center
Wed 06:56:15 PM 26.7339 -80.4458 106° East 221 254 5,900 -1,150 Descending Miami Center
Wed 06:57:15 PM 26.7211 -80.3708 101° East 221 254 4,700 -1,200 Descending Miami Center
Wed 06:58:15 PM 26.7058 -80.3075 105° East 231 266 3,500 -1,250 Descending Miami Center
Wed 06:59:15 PM 26.6889 -80.2303 104° East 237 273 2,200 -1,300 Descending Miami Center
Wed 07:01:00 PM 26.6832 -80.0956 50° Northeast  Level Estimated
Wed 07:08:00 PM 26.6832 -80.0956 50° Northeast  Level Estimated
Wed 07:09:00 PM 26.6832 -80.0956 50° Northeast  Level Estimated
Wed 07:10:00 PM 26.6832 -80.0956 50° Northeast  Level Estimated

Login

Don't have an account? Register now (free) for customized features, flight alerts, and more!